All Spectrum Aviation - Van Nuys Airport - KVNY

HOME

Condor Squadron KVNY Webcam

Visit our Electronics Store

Condor Squadron Webcam - Van Nuys Airport - KVNY
Picture taken: Sat, 22 Feb 2020 19:37:24 -0800
YouTube Channel!    Latest Timelapse Movie    Full Size Image    Regular Size Image    

2020/02/23 02:51 KVNY 230251Z 00000KT 10SM SCT030 BKN070 13/09 A3007 RMK AO2 RAE27 SLP179 P0001 60002 T01330094 51020

HOME

Condor Squadron KVNY Webcam

Visit our Electronics Store